Time;durP1;ratioP1;P1;durP2;ratioP2;P2;SDS_P1;SDS_P2;PMS_P1;PMS_P2;Temp;Humidity;BMP_temperature;BMP_pressure;BME280_temperature;BME280_humidity;BME280_pressure;Samples;Min_cycle;Max_cycle;Signal;HPM_P1;HPM_P2
2022/06/22 00:00:43;;;;;;;11.82;8.07;;;;;;;18.11;97.66;97909.88;5047239;28;20317;-69
2022/06/22 00:03:10;;;;;;;14.20;8.32;;;;;;;18.04;97.92;97889.91;5055847;28;20029;-69
2022/06/22 00:05:45;;;;;;;12.25;8.00;;;;;;;17.98;98.14;97892.94;5066527;28;20251;-69
2022/06/22 00:08:16;;;;;;;9.85;7.60;;;;;;;17.98;98.30;97887.59;5057821;28;20075;-69
2022/06/22 00:10:51;;;;;;;12.35;7.68;;;;;;;18.00;98.08;97894.53;5046798;28;20025;-69
2022/06/22 00:13:21;;;;;;;12.65;7.28;;;;;;;18.07;96.70;97895.03;5047925;28;20032;-69
2022/06/22 00:15:56;;;;;;;11.40;7.50;;;;;;;18.07;96.78;97892.38;5057292;28;20025;-69
2022/06/22 00:18:37;;;;;;;12.48;6.93;;;;;;;18.07;97.01;97877.22;5046729;28;20026;-69
2022/06/22 00:21:17;;;;;;;16.23;7.00;;;;;;;18.11;96.48;97878.78;5055787;28;20029;-69
2022/06/22 00:23:46;;;;;;;8.23;6.20;;;;;;;18.14;95.24;97888.38;5065849;28;20297;-69
2022/06/22 00:26:24;;;;;;;12.82;7.03;;;;;;;18.11;95.06;97872.59;5064189;28;20046;-69
2022/06/22 00:29:04;;;;;;;10.73;6.72;;;;;;;18.08;95.90;97872.78;5065801;28;20088;-69
2022/06/22 00:31:42;;;;;;;16.02;7.82;;;;;;;18.12;95.53;97872.50;5054782;28;20209;-69
2022/06/22 00:34:10;;;;;;;16.58;8.85;;;;;;;18.09;96.13;97895.78;5057195;28;20088;-69
2022/06/22 00:36:46;;;;;;;11.48;6.88;;;;;;;18.08;96.26;97904.72;5065728;28;20092;-69
2022/06/22 00:39:18;;;;;;;10.25;6.38;;;;;;;18.06;95.72;97917.28;5065410;28;20031;-69
2022/06/22 00:42:14;;;;;;;9.98;6.95;;;;;;;18.00;95.25;97912.34;5057456;28;20078;-69
2022/06/22 00:44:55;;;;;;;10.75;6.07;;;;;;;18.04;94.47;97919.19;5058296;28;20037;-69
2022/06/22 00:47:26;;;;;;;9.70;6.53;;;;;;;18.07;92.16;97927.00;5046148;28;20029;-69
2022/06/22 00:49:55;;;;;;;12.55;7.32;;;;;;;17.95;94.70;97919.75;5046005;28;20080;-69
2022/06/22 00:52:32;;;;;;;14.75;8.05;;;;;;;17.93;96.35;97905.66;5062434;28;20044;-69
2022/06/22 00:54:58;;;;;;;14.93;7.75;;;;;;;17.95;96.12;97893.13;5065413;28;20054;-69
2022/06/22 00:57:33;;;;;;;10.73;6.15;;;;;;;17.99;93.18;97902.63;5065331;28;20029;-69
2022/06/22 01:00:03;;;;;;;15.40;5.80;;;;;;;18.05;90.16;97889.81;5064207;28;20029;-69
2022/06/22 01:02:44;;;;;;;6.22;4.50;;;;;;;18.13;87.67;97876.03;5047143;28;20092;-69
2022/06/22 01:05:35;;;;;;;10.30;4.53;;;;;;;18.21;85.29;97890.59;5045670;28;20051;-69
2022/06/22 01:08:17;;;;;;;5.60;3.80;;;;;;;18.36;81.66;97894.09;5045086;28;20344;-69
2022/06/22 01:10:57;;;;;;;6.90;4.35;;;;;;;18.37;82.07;97891.38;5062134;28;20024;-69
2022/06/22 01:13:33;;;;;;;10.93;4.43;;;;;;;18.35;82.33;97882.59;5059735;28;20026;-69
2022/06/22 01:16:04;;;;;;;6.20;3.38;;;;;;;18.42;79.51;97877.78;5045591;28;20028;-69
2022/06/22 01:18:46;;;;;;;9.60;3.75;;;;;;;18.45;79.65;97872.25;5050899;28;20025;-69
2022/06/22 01:21:19;;;;;;;5.53;3.55;;;;;;;18.44;80.66;97870.53;5054067;28;20079;-69
2022/06/22 01:24:03;;;;;;;8.57;4.45;;;;;;;18.32;83.42;97869.44;5045304;28;20045;-69
2022/06/22 01:26:43;;;;;;;9.70;5.07;;;;;;;18.31;83.03;97858.88;5055189;28;20033;-69
2022/06/22 01:29:21;;;;;;;6.38;4.15;;;;;;;18.34;82.13;97842.72;5064736;28;20033;-69
2022/06/22 01:32:16;;;;;;;5.65;3.65;;;;;;;18.35;80.93;97836.47;5064686;28;20021;-69
2022/06/22 01:34:45;;;;;;;7.18;4.22;;;;;;;18.33;81.41;97830.34;5061874;28;20029;-69
2022/06/22 01:37:21;;;;;;;5.13;3.75;;;;;;;18.25;81.10;97821.97;5065077;28;20074;-69
2022/06/22 01:39:47;;;;;;;5.50;3.60;;;;;;;18.24;79.00;97820.28;5065071;28;20020;-69
2022/06/22 01:42:22;;;;;;;5.22;3.40;;;;;;;18.23;79.24;97813.25;5064998;28;20017;-69
2022/06/22 01:45:04;;;;;;;6.00;3.13;;;;;;;18.20;77.05;97808.97;5064902;28;20087;-69
2022/06/22 01:47:46;;;;;;;5.32;3.10;;;;;;;18.22;74.94;97800.88;5065217;28;20023;-69
2022/06/22 01:50:21;;;;;;;7.00;3.40;;;;;;;18.21;76.27;97812.47;5049773;28;20025;-69
2022/06/22 01:53:09;;;;;;;6.10;2.78;;;;;;;18.13;75.76;97818.28;5044863;28;20021;-69
2022/06/22 01:55:56;;;;;;;5.35;3.28;;;;;;;18.03;79.06;97835.78;5044827;28;20244;-69
2022/06/22 01:58:21;;;;;;;6.53;3.20;;;;;;;17.84;80.44;97827.19;5044745;28;20079;-69
2022/06/22 02:00:53;;;;;;;8.43;3.38;;;;;;;17.75;81.60;97837.56;5045836;28;20092;-69
2022/06/22 02:03:33;;;;;;;7.53;3.53;;;;;;;17.70;80.30;97834.31;5044666;28;20021;-69
2022/06/22 02:06:02;;;;;;;7.32;3.70;;;;;;;17.58;80.12;97825.25;5044571;28;20371;-69
2022/06/22 02:08:36;;;;;;;6.53;3.15;;;;;;;17.52;79.60;97824.78;5044537;28;20025;-69
2022/06/22 02:11:13;;;;;;;7.07;3.63;;;;;;;17.43;80.64;97817.34;5044575;28;20028;-69
2022/06/22 02:13:50;;;;;;;6.10;2.83;;;;;;;17.45;77.91;97820.75;5045658;28;20216;-69
2022/06/22 02:16:34;;;;;;;8.40;3.60;;;;;;;17.43;78.42;97812.88;5044507;28;20014;-69
2022/06/22 02:18:59;;;;;;;7.40;3.72;;;;;;;17.33;80.27;97819.66;5043658;28;20344;-69
2022/06/22 02:21:31;;;;;;;10.27;3.65;;;;;;;17.24;80.56;97815.72;5044246;28;20029;-69
2022/06/22 02:24:03;;;;;;;;;;;;;;;17.11;82.13;97812.09;5044686;28;20333;-69
2022/06/22 02:26:44;;;;;;;9.00;4.03;;;;;;;17.04;84.62;97810.72;5044154;28;19912;-69
2022/06/22 02:29:12;;;;;;;9.63;4.03;;;;;;;17.04;84.66;97813.38;5044208;28;20036;-69
2022/06/22 02:31:37;;;;;;;7.93;3.72;;;;;;;17.00;85.35;97809.19;5044175;28;20275;-69
2022/06/22 02:34:03;;;;;;;8.68;4.00;;;;;;;16.92;85.99;97814.09;5044224;28;20032;-69
2022/06/22 02:36:35;;;;;;;7.82;4.00;;;;;;;16.94;85.91;97822.84;5044160;28;20045;-69
2022/06/22 02:39:03;;;;;;;11.70;3.80;;;;;;;16.96;85.52;97820.94;5052543;28;20052;-69
2022/06/22 02:44:29;;;;;;;6.93;3.95;;;;;;;16.76;87.09;97826.53;5063974;28;20315;-69
2022/06/22 02:46:57;;;;;;;5.45;3.67;;;;;;;16.76;86.08;97821.22;5063910;28;20043;-69
2022/06/22 02:49:29;;;;;;;8.50;3.90;;;;;;;16.80;86.08;97820.09;5063898;28;20320;-69
2022/06/22 02:51:56;;;;;;;8.73;4.50;;;;;;;16.75;87.67;97816.88;5063960;28;20024;-69
2022/06/22 02:54:39;;;;;;;8.82;3.97;;;;;;;16.71;86.09;97810.00;5063874;28;20088;-69
2022/06/22 02:57:26;;;;;;;6.75;3.72;;;;;;;16.80;85.54;97809.47;5050915;28;20048;-69
2022/06/22 02:59:52;;;;;;;9.60;3.92;;;;;;;16.74;87.08;97822.28;5042910;28;20089;-69
2022/06/22 03:02:20;;;;;;;10.10;4.80;;;;;;;16.66;88.83;97812.06;5044016;28;20032;-69
2022/06/22 03:04:47;;;;;;;7.72;4.65;;;;;;;16.58;89.34;97824.91;5043763;28;20032;-69
2022/06/22 03:07:13;;;;;;;10.90;4.75;;;;;;;16.51;89.79;97828.84;5044039;28;20021;-69
2022/06/22 03:09:40;;;;;;;10.02;4.65;;;;;;;16.51;89.95;97828.84;5043781;28;20340;-69
2022/06/22 03:12:06;;;;;;;6.63;4.18;;;;;;;16.39;89.31;97844.59;5045699;28;20321;-69
2022/06/22 03:14:42;;;;;;;7.60;4.40;;;;;;;16.37;89.36;97846.47;5063679;28;20048;-69
2022/06/22 03:17:14;;;;;;;7.20;4.20;;;;;;;16.42;89.12;97861.19;5063805;28;20124;-69
2022/06/22 03:19:50;;;;;;;6.73;3.83;;;;;;;16.41;88.72;97869.25;5063687;28;20344;-69
2022/06/22 03:22:43;;;;;;;7.30;4.43;;;;;;;16.40;89.14;97873.72;5063868;28;20027;-69
2022/06/22 03:25:22;;;;;;;4.85;3.42;;;;;;;16.37;88.02;97883.66;5063592;28;20074;-69
2022/06/22 03:27:51;;;;;;;10.98;4.15;;;;;;;16.43;87.59;97878.91;5063484;28;20052;-69
2022/06/22 03:30:27;;;;;;;10.32;3.88;;;;;;;16.39;88.84;97881.78;5063703;28;20328;-69
2022/06/22 03:33:06;;;;;;;6.93;4.15;;;;;;;16.40;90.05;97888.78;5067468;28;20375;-69
2022/06/22 03:35:44;;;;;;;5.32;4.00;;;;;;;16.31;91.09;97895.47;5067476;28;20020;-69
2022/06/22 03:38:19;;;;;;;6.03;3.83;;;;;;;16.39;89.47;97901.22;5056965;28;20076;-69
2022/06/22 03:40:56;;;;;;;7.70;3.75;;;;;;;16.58;86.85;97917.91;5047655;28;20329;-69
2022/06/22 03:43:26;;;;;;;10.25;3.90;;;;;;;16.63;87.79;97912.34;5047269;28;20025;-69
2022/06/22 03:45:58;;;;;;;14.80;4.32;;;;;;;16.60;89.53;97908.06;5047166;28;20220;-69
2022/06/22 03:48:31;;;;;;;9.00;4.10;;;;;;;16.62;89.75;97905.31;5047180;28;20037;-69
2022/06/22 03:51:03;;;;;;;11.38;3.95;;;;;;;16.69;88.93;97906.69;5047225;28;20079;-69
2022/06/22 03:53:41;;;;;;;8.60;4.50;;;;;;;16.75;89.44;97912.53;5047393;28;20392;-69
2022/06/22 03:56:12;;;;;;;5.65;3.28;;;;;;;16.82;87.85;97897.09;5047272;28;20021;-69
2022/06/22 03:58:40;;;;;;;9.93;3.97;;;;;;;16.72;90.12;97896.75;5047050;28;20261;-69
2022/06/22 04:01:06;;;;;;;7.40;3.78;;;;;;;16.67;91.47;97893.50;5054936;28;20046;-69
2022/06/22 04:03:31;;;;;;;4.55;3.47;;;;;;;16.65;90.24;97884.72;5066935;28;20028;-69
2022/06/22 04:05:58;;;;;;;9.20;4.32;;;;;;;16.63;90.74;97886.63;5066769;28;20017;-69
2022/06/22 04:08:31;;;;;;;7.53;3.78;;;;;;;16.65;90.53;97873.25;5066846;28;20049;-69
2022/06/22 04:11:06;;;;;;;8.73;3.85;;;;;;;16.70;88.85;97869.41;5066059;28;20088;-69
2022/06/22 04:13:42;;;;;;;7.22;5.07;;;;;;;16.69;89.54;97875.66;5066732;28;20329;-69
2022/06/22 04:16:17;;;;;;;7.03;4.07;;;;;;;16.75;90.20;97879.78;5066638;28;20021;-69
2022/06/22 04:18:57;;;;;;;8.63;4.50;;;;;;;16.79;90.58;97876.88;5066624;28;20028;-69
2022/06/22 04:21:27;;;;;;;6.03;4.03;;;;;;;16.79;91.79;97876.88;5066577;28;20047;-69
2022/06/22 04:23:57;;;;;;;6.15;4.30;;;;;;;16.79;91.41;97887.50;5066417;28;20115;-69
2022/06/22 04:26:28;;;;;;;7.13;3.97;;;;;;;16.82;90.83;97884.66;5066394;28;20025;-68
2022/06/22 04:29:00;;;;;;;8.55;4.55;;;;;;;16.85;90.95;97887.16;5066377;28;20021;-69
2022/06/22 04:31:31;;;;;;;8.98;4.60;;;;;;;16.82;91.17;97887.31;5065237;28;20092;-70
2022/06/22 04:34:07;;;;;;;7.63;4.35;;;;;;;16.86;91.25;97878.22;5066396;28;20051;-69
2022/06/22 04:36:56;;;;;;;8.60;3.92;;;;;;;16.88;91.72;97868.38;5061514;28;20320;-69
2022/06/22 04:39:35;;;;;;;7.43;4.43;;;;;;;16.89;90.83;97867.44;5057782;28;20029;-69
2022/06/22 04:42:02;;;;;;;8.32;4.47;;;;;;;16.96;91.33;97884.75;5065353;28;20025;-69
2022/06/22 04:44:32;;;;;;;5.65;3.75;;;;;;;16.96;91.31;97886.56;5065995;28;20328;-69
2022/06/22 04:47:13;;;;;;;6.60;3.95;;;;;;;17.03;91.78;97888.75;5066057;28;20067;-69
2022/06/22 04:49:51;;;;;;;8.25;4.10;;;;;;;17.04;90.38;97897.59;5066064;28;20029;-69
2022/06/22 04:52:28;;;;;;;8.35;3.17;;;;;;;17.18;87.96;97890.56;5066240;28;20020;-69
2022/06/22 04:54:57;;;;;;;6.85;4.20;;;;;;;17.23;91.90;97891.16;5066075;28;20104;-69
2022/06/22 04:57:33;;;;;;;5.22;3.95;;;;;;;17.24;90.20;97889.34;5065896;28;20024;-69
2022/06/22 05:00:13;;;;;;;7.47;4.45;;;;;;;17.28;90.50;97882.91;5065915;28;20092;-69
2022/06/22 05:02:41;;;;;;;7.30;3.95;;;;;;;17.36;88.12;97877.13;5065762;28;20029;-69
2022/06/22 05:05:22;;;;;;;5.05;3.67;;;;;;;17.46;87.32;97881.84;5065721;28;20040;-69
2022/06/22 05:07:57;;;;;;;9.02;4.97;;;;;;;17.47;88.20;97880.06;5065694;28;20051;-69
2022/06/22 05:10:38;;;;;;;7.45;3.40;;;;;;;17.54;83.32;97881.41;5065635;28;20024;-69
2022/06/22 05:13:11;;;;;;;6.53;3.58;;;;;;;17.70;80.70;97877.75;5065615;28;20324;-69
2022/06/22 05:15:40;;;;;;;6.20;3.67;;;;;;;17.77;79.97;97888.88;5065576;28;20283;-69
2022/06/22 05:18:13;;;;;;;5.72;3.25;;;;;;;17.81;80.64;97887.78;5065525;28;20024;-69
2022/06/22 05:20:51;;;;;;;4.07;3.10;;;;;;;17.86;80.12;97888.34;5065502;28;20362;-69
2022/06/22 05:23:19;;;;;;;5.03;3.28;;;;;;;17.93;80.68;97895.00;5065449;28;20087;-69
2022/06/22 05:25:48;;;;;;;11.23;3.47;;;;;;;17.93;82.35;97897.66;5065291;28;20024;-69
2022/06/22 05:28:26;;;;;;;4.60;2.80;;;;;;;17.99;80.68;97918.59;5065200;28;20032;-69
2022/06/22 05:31:05;;;;;;;4.57;2.80;;;;;;;18.00;81.03;97923.00;5065254;28;20095;-69
2022/06/22 05:33:31;;;;;;;7.75;3.25;;;;;;;17.99;82.65;97931.91;5065223;28;20251;-69
2022/06/22 05:36:04;;;;;;;5.78;3.33;;;;;;;18.00;83.42;97931.81;5065227;28;20021;-69
2022/06/22 05:38:32;;;;;;;6.47;3.47;;;;;;;17.94;84.79;97928.69;5065143;28;20066;-69
2022/06/22 05:41:00;;;;;;;5.97;3.47;;;;;;;17.90;85.06;97932.47;5065156;28;20062;-69
2022/06/22 05:43:26;;;;;;;4.57;3.22;;;;;;;17.92;84.00;97946.53;5065118;28;20040;-69
2022/06/22 05:45:54;;;;;;;11.20;3.38;;;;;;;17.84;84.01;97944.34;5064899;28;20059;-69
2022/06/22 05:48:24;;;;;;;8.43;3.53;;;;;;;17.88;83.46;97950.34;5064910;28;20343;-69
2022/06/22 05:50:55;;;;;;;5.70;3.40;;;;;;;17.91;84.64;97947.50;5064905;28;20028;-69
2022/06/22 05:53:39;;;;;;;5.00;3.60;;;;;;;17.93;84.81;97959.78;5064666;28;20056;-69
2022/06/22 05:56:58;;;;;;;6.70;3.67;;;;;;;17.87;85.18;97956.63;5064834;28;20084;-69
2022/06/22 05:59:55;;;;;;;6.57;3.60;;;;;;;17.95;83.39;97963.22;5043078;28;20032;-69
2022/06/22 06:02:36;;;;;;;5.57;3.10;;;;;;;18.00;84.10;97970.94;5035558;28;20033;-69
2022/06/22 06:05:17;;;;;;;8.02;3.83;;;;;;;18.08;83.82;97963.31;5042834;28;20376;-69
2022/06/22 06:07:49;;;;;;;6.68;3.40;;;;;;;18.11;83.49;97963.16;5042958;28;20105;-69
2022/06/22 06:10:21;;;;;;;6.28;3.58;;;;;;;18.08;82.87;97958.00;5042876;28;20391;-69
2022/06/22 06:12:59;;;;;;;4.88;3.13;;;;;;;18.10;82.56;97956.13;5042887;28;20043;-69
2022/06/22 06:15:25;;;;;;;4.88;4.22;;;;;;;18.19;82.90;97947.56;5042758;28;20216;-69
2022/06/22 06:17:57;;;;;;;9.80;5.18;;;;;;;18.21;81.79;97945.66;5042726;28;20052;-69
2022/06/22 06:20:34;;;;;;;10.93;4.45;;;;;;;18.25;82.47;97947.19;5042667;28;20029;-69
2022/06/22 06:23:12;;;;;;;10.65;4.13;;;;;;;18.37;82.63;97943.81;5042431;28;20045;-69
2022/06/22 06:29:08;;;;;;;6.38;3.65;;;;;;;18.71;81.47;97943.44;5042549;28;20125;-69
2022/06/22 06:31:45;;;;;;;6.82;3.03;;;;;;;18.83;81.27;97932.00;5064253;28;20049;-69
2022/06/22 06:34:18;;;;;;;6.00;3.75;;;;;;;18.95;82.22;97925.88;5064140;28;20040;-69
2022/06/22 06:36:58;;;;;;;7.97;3.20;;;;;;;19.05;81.12;97927.84;5064101;28;20021;-69
2022/06/22 06:39:28;;;;;;;6.05;3.35;;;;;;;19.17;82.04;97934.22;5064085;28;20027;-69
2022/06/22 06:42:04;;;;;;;8.05;2.75;;;;;;;19.20;78.28;97936.69;5064321;28;20343;-69
2022/06/22 06:44:42;;;;;;;8.30;3.38;;;;;;;19.22;76.57;97929.44;5064028;28;20050;-69
2022/06/22 06:47:17;;;;;;;6.88;2.50;;;;;;;19.27;77.71;97937.19;5063900;28;20024;-69
2022/06/22 06:49:49;;;;;;;4.95;3.20;;;;;;;19.33;77.21;97947.47;5063971;28;20378;-69
2022/06/22 06:52:44;;;;;;;4.28;2.78;;;;;;;19.39;75.61;97947.06;5063942;28;20024;-69
2022/06/22 06:55:34;;;;;;;6.35;2.92;;;;;;;19.38;75.50;97940.88;5063103;28;20056;-69
2022/06/22 06:58:14;;;;;;;4.72;2.97;;;;;;;19.34;75.47;97938.50;5063805;28;20017;-69
2022/06/22 07:00:41;;;;;;;5.78;3.25;;;;;;;19.37;75.11;97949.84;5063737;28;20020;-69
2022/06/22 07:03:24;;;;;;;4.10;2.58;;;;;;;19.39;74.92;97955.91;5063817;28;20256;-69
2022/06/22 07:05:50;;;;;;;4.53;3.22;;;;;;;19.40;74.97;97948.78;5064820;28;20220;-69
2022/06/22 07:08:24;;;;;;;10.65;3.50;;;;;;;19.38;76.03;97946.19;5067952;28;20044;-69
2022/06/22 07:11:03;;;;;;;6.07;3.10;;;;;;;19.36;75.59;97947.28;5067905;28;20025;-69
2022/06/22 07:13:38;;;;;;;9.85;3.33;;;;;;;19.29;74.34;97949.47;5067814;28;20021;-69
2022/06/22 07:16:12;;;;;;;3.72;2.78;;;;;;;19.32;73.68;97957.28;5067858;28;20067;-69
2022/06/22 07:18:43;;;;;;;7.38;3.58;;;;;;;19.34;73.96;97955.38;5067847;28;20215;-69
2022/06/22 07:21:32;;;;;;;6.67;2.80;;;;;;;19.35;75.14;97951.75;5067834;28;20025;-69
2022/06/22 07:24:26;;;;;;;4.68;3.10;;;;;;;19.36;73.45;97942.75;5067645;28;20045;-69
2022/06/22 07:27:15;;;;;;;7.85;3.72;;;;;;;19.38;74.28;97956.00;5067458;28;20346;-69
2022/06/22 07:29:54;;;;;;;5.35;3.35;;;;;;;19.37;76.06;97949.84;5067629;28;20366;-69
2022/06/22 07:32:39;;;;;;;6.22;3.28;;;;;;;19.34;77.13;97950.03;5067495;28;20025;-69
2022/06/22 07:35:30;;;;;;;4.68;2.95;;;;;;;19.32;79.34;97951.06;5067482;28;20028;-69
2022/06/22 07:38:23;;;;;;;5.28;3.65;;;;;;;19.34;80.54;97944.69;5067477;28;20086;-69
2022/06/22 07:43:34;;;;;;;7.18;4.20;;;;;;;19.38;80.07;97945.34;5067308;28;20067;-69
2022/06/22 07:46:00;;;;;;;5.30;3.58;;;;;;;19.44;80.84;97951.13;5067241;28;20247;-69
2022/06/22 07:48:29;;;;;;;7.28;3.65;;;;;;;19.46;83.87;97954.59;5067293;28;20058;-69
2022/06/22 07:50:58;;;;;;;5.15;3.83;;;;;;;19.48;84.38;97955.31;5067251;28;20028;-69
2022/06/22 07:53:54;;;;;;;6.57;3.80;;;;;;;19.54;85.25;97941.56;5067095;28;20100;-69
2022/06/22 07:56:43;;;;;;;6.15;4.25;;;;;;;19.49;82.87;97930.31;5064725;28;20366;-69
2022/06/22 07:59:20;;;;;;;7.13;4.30;;;;;;;19.36;83.29;97921.41;5066989;28;20021;-69
2022/06/22 08:01:49;;;;;;;8.73;4.60;;;;;;;19.19;87.45;97916.31;5067046;28;20036;-69
2022/06/22 08:04:38;;;;;;;8.68;4.57;;;;;;;19.11;85.64;97911.47;5066950;28;20041;-69
2022/06/22 08:07:10;;;;;;;6.28;4.32;;;;;;;19.03;87.12;97912.91;5066837;28;20135;-69
2022/06/22 08:09:40;;;;;;;6.95;4.22;;;;;;;18.89;88.85;97915.63;5066853;28;20047;-69
2022/06/22 08:12:35;;;;;;;6.30;4.72;;;;;;;18.81;88.61;97907.25;5066835;28;20025;-69
2022/06/22 08:15:06;;;;;;;8.68;5.00;;;;;;;18.75;91.82;97912.97;5066754;28;20021;-69
2022/06/22 08:17:47;;;;;;;7.53;4.82;;;;;;;18.72;90.21;97934.47;5066563;28;20032;-69
2022/06/22 08:20:16;;;;;;;9.27;5.50;;;;;;;18.53;94.02;97953.44;5066594;28;20362;-69
2022/06/22 08:22:44;;;;;;;13.95;6.35;;;;;;;18.39;95.24;97968.56;5066449;28;20033;-69
2022/06/22 08:25:11;;;;;;;9.65;5.15;;;;;;;18.43;96.11;97972.75;5066454;28;20020;-69
2022/06/22 08:27:37;;;;;;;6.22;4.88;;;;;;;18.43;97.55;97981.59;5066396;28;20024;-69
2022/06/22 08:30:04;;;;;;;9.35;5.05;;;;;;;18.45;98.35;97978.84;5066446;28;20248;-69
2022/06/22 08:32:35;;;;;;;14.27;5.65;;;;;;;18.35;98.61;97978.50;5066425;28;20370;-69
2022/06/22 08:35:18;;;;;;;10.07;5.75;;;;;;;18.33;94.89;97975.09;5066402;28;20021;-69
2022/06/22 08:38:22;;;;;;;9.60;5.47;;;;;;;18.37;94.27;97970.44;5066344;28;20032;-69
2022/06/22 08:40:59;;;;;;;5.95;4.95;;;;;;;18.39;92.20;97973.88;5059835;28;20040;-69
2022/06/22 08:43:34;;;;;;;6.60;4.88;;;;;;;18.34;91.64;97960.81;5066228;28;20048;-69
2022/06/22 08:46:37;;;;;;;8.98;5.32;;;;;;;18.38;92.58;97961.53;5066019;28;20327;-69
2022/06/22 08:49:26;;;;;;;9.75;5.75;;;;;;;18.43;93.83;97954.09;5058053;28;20052;-69
2022/06/22 08:52:10;;;;;;;10.80;5.97;;;;;;;18.40;96.08;97954.28;5066017;28;20324;-69
2022/06/22 08:54:41;;;;;;;8.57;5.82;;;;;;;18.52;96.98;97950.88;5065985;28;20036;-69
2022/06/22 08:57:22;;;;;;;11.98;5.95;;;;;;;18.71;98.34;97954.09;5065992;28;20017;-69
2022/06/22 09:00:05;;;;;;;8.63;5.40;;;;;;;18.79;96.60;97946.47;5065887;28;20036;-69
2022/06/22 09:02:48;;;;;;;9.60;5.90;;;;;;;18.91;98.73;97949.22;5065877;28;20082;-69
2022/06/22 09:05:21;;;;;;;10.75;6.18;;;;;;;19.01;98.53;97946.81;5065680;28;20313;-69
2022/06/22 09:07:55;;;;;;;8.23;6.38;;;;;;;19.15;96.67;97944.16;5065752;28;20098;-69
2022/06/22 09:10:30;;;;;;;8.88;6.32;;;;;;;19.32;96.65;97945.72;5065691;28;20032;-69
2022/06/22 09:13:15;;;;;;;7.18;5.13;;;;;;;19.32;91.39;97951.06;5065650;28;20025;-69
2022/06/22 09:16:10;;;;;;;10.02;6.30;;;;;;;19.42;89.11;97949.53;5065871;28;20204;-69
2022/06/22 09:19:03;;;;;;;11.27;5.60;;;;;;;19.34;90.18;97955.38;5065576;28;20054;-69
2022/06/22 09:22:00;;;;;;;7.70;5.30;;;;;;;19.36;88.94;97948.09;5065527;28;20259;-69
2022/06/22 09:25:02;;;;;;;8.77;5.43;;;;;;;19.31;90.34;97952.91;5065312;28;20107;-69
2022/06/22 09:27:48;;;;;;;8.85;5.57;;;;;;;19.14;91.15;97953.06;5065583;28;20021;-69
2022/06/22 09:30:26;;;;;;;7.13;5.65;;;;;;;19.03;93.46;97963.59;5064908;28;20029;-69
2022/06/22 09:32:54;;;;;;;7.70;5.25;;;;;;;19.03;93.46;97966.25;5065283;28;20236;-69
2022/06/22 09:35:56;;;;;;;9.30;5.30;;;;;;;19.07;94.93;97960.63;5065193;28;20017;-69
2022/06/22 09:38:45;;;;;;;8.60;6.07;;;;;;;19.01;94.97;97957.50;5065140;28;20074;-69
2022/06/22 09:41:31;;;;;;;11.75;6.65;;;;;;;19.09;96.25;97971.22;5065094;28;20017;-69
2022/06/22 09:44:09;;;;;;;8.45;5.82;;;;;;;19.18;95.32;97959.94;5065072;28;20029;-69
2022/06/22 09:46:37;;;;;;;10.45;6.28;;;;;;;19.09;94.68;97952.53;5064984;28;20092;-69
2022/06/22 09:49:22;;;;;;;11.82;6.57;;;;;;;19.15;94.87;97954.81;5065012;28;20032;-69
2022/06/22 09:51:50;;;;;;;12.68;6.88;;;;;;;19.26;95.43;97952.34;5065148;28;20456;-69
2022/06/22 09:57:29;;;;;;;12.95;7.10;;;;;;;19.57;94.33;97968.06;5064805;28;20023;-69
2022/06/22 10:00:07;;;;;;;8.68;5.97;;;;;;;19.73;94.50;97974.09;5064821;28;20027;-69
2022/06/22 10:02:35;;;;;;;10.77;6.53;;;;;;;19.78;92.36;97980.00;5064655;28;20044;-69
2022/06/22 10:05:45;;;;;;;9.60;6.55;;;;;;;19.88;92.26;97975.75;5064529;28;20024;-69
2022/06/22 10:08:35;;;;;;;9.27;5.93;;;;;;;19.91;91.85;97975.56;5064828;28;20241;-69
2022/06/22 10:11:11;;;;;;;10.10;6.90;;;;;;;19.94;91.38;97978.03;5064576;28;20066;-69
2022/06/22 10:14:00;;;;;;;13.13;6.82;;;;;;;19.89;89.85;97985.47;5064560;28;20029;-69
2022/06/22 10:16:28;;;;;;;13.65;6.55;;;;;;;19.89;90.31;97985.47;5064442;28;20088;-69
2022/06/22 10:18:59;;;;;;;12.13;6.93;;;;;;;19.94;90.76;97987.84;5064361;28;20052;-69
2022/06/22 10:21:48;;;;;;;11.43;6.53;;;;;;;19.99;91.99;98002.59;5064422;28;20062;-69
2022/06/22 10:24:22;;;;;;;8.85;6.72;;;;;;;20.04;92.71;98005.84;5064217;28;20090;-69
2022/06/22 10:27:28;;;;;;;10.80;7.28;;;;;;;20.14;92.21;98012.31;5064089;28;20096;-69
2022/06/22 10:30:29;;;;;;;10.70;6.68;;;;;;;20.21;91.32;98007.38;5064244;28;20055;-69
2022/06/22 10:33:31;;;;;;;9.43;6.30;;;;;;;20.35;89.36;98007.31;5052357;28;20340;-69
2022/06/22 10:36:15;;;;;;;10.68;5.78;;;;;;;20.53;89.13;98008.75;5064165;28;20035;-69
2022/06/22 10:38:59;;;;;;;10.93;6.30;;;;;;;20.59;88.37;98003.81;5064100;28;20031;-69
2022/06/22 10:47:11;;;;;;;11.25;6.93;;;;;;;20.77;88.52;97991.84;5063883;28;20295;-69
2022/06/22 10:49:53;;;;;;;11.63;6.35;;;;;;;20.75;88.17;97991.06;5064218;28;20025;-69
2022/06/22 10:52:37;;;;;;;12.77;6.90;;;;;;;20.88;90.82;97994.59;5063957;28;20021;-69
2022/06/22 10:55:20;;;;;;;11.25;7.07;;;;;;;20.92;86.52;97993.41;5063914;28;20064;-69
2022/06/22 10:57:57;;;;;;;10.45;6.47;;;;;;;20.94;86.42;97994.19;5063861;28;20021;-69
2022/06/22 11:00:45;;;;;;;8.50;5.72;;;;;;;20.95;85.79;97995.91;5063842;28;20078;-69
2022/06/22 11:03:48;;;;;;;8.55;6.13;;;;;;;20.98;85.33;97995.69;5063853;28;20020;-69
2022/06/22 11:06:19;;;;;;;11.77;6.93;;;;;;;20.91;85.88;97998.88;5063736;28;20029;-69
2022/06/22 11:09:13;;;;;;;10.80;7.20;;;;;;;20.93;85.20;97995.13;5063777;28;20050;-69
2022/06/22 11:11:56;;;;;;;11.23;6.70;;;;;;;20.80;87.86;98006.81;5063811;28;20027;-69
2022/06/22 11:14:48;;;;;;;10.18;6.97;;;;;;;20.87;88.17;98006.28;5063676;28;20044;-69
2022/06/22 11:17:23;;;;;;;11.05;7.30;;;;;;;20.82;87.01;98003.06;5063721;28;20024;-69
2022/06/22 11:20:07;;;;;;;9.20;7.47;;;;;;;20.89;87.33;98017.69;5063717;28;20094;-69
2022/06/22 11:22:38;;;;;;;10.13;6.70;;;;;;;20.90;88.20;98024.78;5063717;28;20294;-69
2022/06/22 11:31:43;;;;;;;13.18;7.45;;;;;;;20.87;88.89;98025.00;5063560;28;20078;-69
2022/06/22 11:34:56;;;;;;;9.40;7.15;;;;;;;20.76;88.56;98024.88;5063601;28;20025;-69
2022/06/22 11:37:49;;;;;;;11.32;6.97;;;;;;;20.79;89.49;98022.00;5063523;28;20020;-69
2022/06/22 11:40:23;;;;;;;10.30;6.45;;;;;;;20.84;89.22;98030.56;5063463;28;20090;-69
2022/06/22 11:43:13;;;;;;;14.38;7.75;;;;;;;20.95;89.40;98028.00;5063458;28;20044;-69
2022/06/22 11:46:17;;;;;;;9.73;6.95;;;;;;;21.04;89.71;98032.72;5063286;28;20021;-69
2022/06/22 11:49:02;;;;;;;11.07;7.55;;;;;;;21.07;88.76;98037.84;5063427;28;20324;-69
2022/06/22 11:52:19;;;;;;;8.20;6.93;;;;;;;21.21;88.50;98029.72;5059865;28;20321;-69
2022/06/22 11:55:03;;;;;;;12.07;7.57;;;;;;;21.36;88.25;98024.22;5067113;28;20020;-69
2022/06/22 11:57:59;;;;;;;9.15;6.35;;;;;;;21.49;87.34;98017.00;5067071;28;20052;-69
2022/06/22 12:00:43;;;;;;;9.50;6.78;;;;;;;21.51;86.76;98013.25;5067013;28;20296;-69
2022/06/22 12:03:39;;;;;;;10.63;7.30;;;;;;;21.46;87.41;98019.91;5066963;28;20029;-69
2022/06/22 12:06:23;;;;;;;9.45;7.57;;;;;;;21.55;89.39;98019.25;5066900;28;20093;-69
2022/06/22 12:09:10;;;;;;;9.68;7.60;;;;;;;21.52;88.84;98011.44;5066827;28;20039;-69
2022/06/22 12:12:14;;;;;;;11.48;7.07;;;;;;;21.69;89.00;98003.00;5066797;28;20051;-69
2022/06/22 12:15:16;;;;;;;10.15;6.85;;;;;;;21.73;88.69;97997.34;5065570;28;20382;-69
2022/06/22 12:18:00;;;;;;;11.30;6.68;;;;;;;21.77;87.29;98003.34;5066934;28;20086;-69
2022/06/22 12:20:51;;;;;;;8.98;7.05;;;;;;;21.81;87.87;97994.97;5066732;28;20020;-69
2022/06/22 12:23:44;;;;;;;12.25;7.47;;;;;;;21.71;87.22;97990.34;5066445;28;20036;-69
2022/06/22 12:26:24;;;;;;;12.48;6.63;;;;;;;21.87;88.71;97991.81;5066486;28;20083;-69
2022/06/22 12:29:26;;;;;;;15.77;7.28;;;;;;;21.84;88.34;97985.84;5066412;28;20024;-69
2022/06/22 12:32:17;;;;;;;11.02;6.78;;;;;;;21.95;88.08;97983.19;5066482;28;20055;-69
2022/06/22 12:35:07;;;;;;;10.15;6.68;;;;;;;21.87;87.52;97980.25;5066350;28;20202;-69
2022/06/22 12:37:42;;;;;;;11.18;7.68;;;;;;;21.86;88.04;97979.38;5055198;28;20122;-69
2022/06/22 12:40:20;;;;;;;12.63;7.68;;;;;;;21.98;88.34;97978.47;5066298;28;20021;-69
2022/06/22 12:43:03;;;;;;;10.90;7.15;;;;;;;22.07;88.01;97975.09;5066265;28;20040;-69
2022/06/22 12:45:47;;;;;;;11.15;6.88;;;;;;;22.16;88.08;97976.22;5066119;28;20021;-69
2022/06/22 12:48:22;;;;;;;11.95;7.43;;;;;;;22.11;87.56;97973.06;5066166;28;20021;-69